sensor_id;sensor_type;location;lat;lon;timestamp;pressure;altitude;pressure_sealevel;temperature;humidity
49216;BME280;45943;53.148;8.204;2023-05-12T00:01:37;101711.34;;;19.31;100.00
49216;BME280;45943;53.148;8.204;2023-05-12T00:04:03;101709.78;;;19.29;100.00
49216;BME280;45943;53.148;8.204;2023-05-12T00:06:29;101713.91;;;19.33;100.00
49216;BME280;45943;53.148;8.204;2023-05-12T00:08:56;101706.25;;;19.36;100.00
49216;BME280;45943;53.148;8.204;2023-05-12T00:11:22;101704.09;;;19.40;100.00
49216;BME280;45943;53.148;8.204;2023-05-12T00:13:48;101711.91;;;19.43;100.00
49216;BME280;45943;53.148;8.204;2023-05-12T00:16:14;101711.59;;;19.46;100.00
49216;BME280;45943;53.148;8.204;2023-05-12T00:18:42;101712.44;;;19.46;100.00
49216;BME280;45943;53.148;8.204;2023-05-12T00:21:08;101710.59;;;19.47;100.00
49216;BME280;45943;53.148;8.204;2023-05-12T00:23:34;101715.38;;;19.53;100.00
49216;BME280;45943;53.148;8.204;2023-05-12T00:25:59;101719.63;;;19.47;100.00
49216;BME280;45943;53.148;8.204;2023-05-12T00:28:25;101725.84;;;19.40;100.00
49216;BME280;45943;53.148;8.204;2023-05-12T00:30:51;101723.13;;;19.40;100.00
49216;BME280;45943;53.148;8.204;2023-05-12T00:33:17;101715.28;;;19.37;100.00
49216;BME280;45943;53.148;8.204;2023-05-12T00:35:43;101723.81;;;19.42;100.00
49216;BME280;45943;53.148;8.204;2023-05-12T00:38:12;101732.66;;;19.44;100.00
49216;BME280;45943;53.148;8.204;2023-05-12T00:40:39;101731.47;;;19.38;100.00
49216;BME280;45943;53.148;8.204;2023-05-12T00:43:05;101730.75;;;19.36;100.00
49216;BME280;45943;53.148;8.204;2023-05-12T00:45:31;101733.09;;;19.31;100.00
49216;BME280;45943;53.148;8.204;2023-05-12T00:47:57;101732.19;;;19.23;100.00
49216;BME280;45943;53.148;8.204;2023-05-12T00:50:24;101730.56;;;19.12;100.00
49216;BME280;45943;53.148;8.204;2023-05-12T00:52:50;101730.66;;;19.02;100.00
49216;BME280;45943;53.148;8.204;2023-05-12T00:55:16;101733.88;;;18.98;100.00
49216;BME280;45943;53.148;8.204;2023-05-12T00:57:42;101737.88;;;18.94;100.00
49216;BME280;45943;53.148;8.204;2023-05-12T01:00:09;101725.16;;;18.94;100.00
49216;BME280;45943;53.148;8.204;2023-05-12T01:02:35;101727.16;;;18.92;100.00
49216;BME280;45943;53.148;8.204;2023-05-12T01:05:01;101727.50;;;18.89;100.00
49216;BME280;45943;53.148;8.204;2023-05-12T01:07:29;101738.38;;;18.89;100.00
49216;BME280;45943;53.148;8.204;2023-05-12T01:09:57;101739.84;;;18.83;100.00
49216;BME280;45943;53.148;8.204;2023-05-12T01:12:24;101733.53;;;18.83;100.00
49216;BME280;45943;53.148;8.204;2023-05-12T01:14:51;101748.47;;;18.79;100.00
49216;BME280;45943;53.148;8.204;2023-05-12T01:17:19;101744.34;;;18.75;100.00
49216;BME280;45943;53.148;8.204;2023-05-12T01:19:53;101745.50;;;18.72;100.00
49216;BME280;45943;53.148;8.204;2023-05-12T01:22:23;101742.25;;;18.69;100.00
49216;BME280;45943;53.148;8.204;2023-05-12T01:24:54;101742.53;;;18.66;100.00
49216;BME280;45943;53.148;8.204;2023-05-12T01:27:22;101740.56;;;18.58;100.00
49216;BME280;45943;53.148;8.204;2023-05-12T01:29:53;101744.75;;;18.52;100.00
49216;BME280;45943;53.148;8.204;2023-05-12T01:32:22;101747.38;;;18.44;100.00
49216;BME280;45943;53.148;8.204;2023-05-12T01:34:48;101750.63;;;18.48;100.00
49216;BME280;45943;53.148;8.204;2023-05-12T01:37:15;101743.66;;;18.45;100.00
49216;BME280;45943;53.148;8.204;2023-05-12T01:39:41;101742.84;;;18.35;100.00
49216;BME280;45943;53.148;8.204;2023-05-12T01:42:07;101750.31;;;18.33;100.00
49216;BME280;45943;53.148;8.204;2023-05-12T01:44:33;101748.91;;;18.29;100.00
49216;BME280;45943;53.148;8.204;2023-05-12T01:46:59;101753.47;;;18.28;100.00
49216;BME280;45943;53.148;8.204;2023-05-12T01:49:26;101755.63;;;18.25;100.00
49216;BME280;45943;53.148;8.204;2023-05-12T01:51:52;101749.81;;;18.20;100.00
49216;BME280;45943;53.148;8.204;2023-05-12T01:54:18;101760.09;;;18.16;100.00
49216;BME280;45943;53.148;8.204;2023-05-12T01:56:44;101757.41;;;18.16;100.00
49216;BME280;45943;53.148;8.204;2023-05-12T01:59:10;101755.69;;;18.15;100.00
49216;BME280;45943;53.148;8.204;2023-05-12T02:01:36;101764.13;;;18.12;100.00
49216;BME280;45943;53.148;8.204;2023-05-12T02:04:02;101768.72;;;18.12;100.00
49216;BME280;45943;53.148;8.204;2023-05-12T02:06:29;101763.28;;;18.12;100.00
49216;BME280;45943;53.148;8.204;2023-05-12T02:08:56;101761.28;;;18.14;100.00
49216;BME280;45943;53.148;8.204;2023-05-12T02:11:22;101774.00;;;18.13;100.00
49216;BME280;45943;53.148;8.204;2023-05-12T02:13:48;101772.28;;;18.12;100.00
49216;BME280;45943;53.148;8.204;2023-05-12T02:16:14;101771.72;;;18.09;100.00
49216;BME280;45943;53.148;8.204;2023-05-12T02:18:40;101776.16;;;18.10;100.00
49216;BME280;45943;53.148;8.204;2023-05-12T02:21:06;101778.31;;;18.06;100.00
49216;BME280;45943;53.148;8.204;2023-05-12T02:23:32;101777.06;;;18.00;100.00
49216;BME280;45943;53.148;8.204;2023-05-12T02:25:58;101777.66;;;17.94;100.00
49216;BME280;45943;53.148;8.204;2023-05-12T02:28:24;101779.91;;;17.99;100.00
49216;BME280;45943;53.148;8.204;2023-05-12T02:30:50;101780.31;;;18.04;100.00
49216;BME280;45943;53.148;8.204;2023-05-12T02:33:20;101783.19;;;18.02;100.00
49216;BME280;45943;53.148;8.204;2023-05-12T02:35:47;101777.44;;;18.05;100.00
49216;BME280;45943;53.148;8.204;2023-05-12T02:38:13;101770.84;;;18.08;100.00
49216;BME280;45943;53.148;8.204;2023-05-12T02:40:39;101776.72;;;18.13;100.00
49216;BME280;45943;53.148;8.204;2023-05-12T02:43:05;101783.84;;;18.14;100.00
49216;BME280;45943;53.148;8.204;2023-05-12T02:45:31;101771.66;;;18.18;100.00
49216;BME280;45943;53.148;8.204;2023-05-12T02:47:58;101772.41;;;18.20;100.00
49216;BME280;45943;53.148;8.204;2023-05-12T02:50:24;101770.06;;;18.25;100.00
49216;BME280;45943;53.148;8.204;2023-05-12T02:52:50;101773.34;;;18.29;100.00
49216;BME280;45943;53.148;8.204;2023-05-12T02:55:16;101769.31;;;18.33;100.00
49216;BME280;45943;53.148;8.204;2023-05-12T02:57:42;101768.31;;;18.34;100.00
49216;BME280;45943;53.148;8.204;2023-05-12T03:00:08;101773.75;;;18.34;100.00
49216;BME280;45943;53.148;8.204;2023-05-12T03:02:35;101764.75;;;18.33;100.00
49216;BME280;45943;53.148;8.204;2023-05-12T03:05:03;101769.31;;;18.33;100.00
49216;BME280;45943;53.148;8.204;2023-05-12T03:07:30;101766.19;;;18.28;100.00
49216;BME280;45943;53.148;8.204;2023-05-12T03:09:59;101771.94;;;18.25;100.00
49216;BME280;45943;53.148;8.204;2023-05-12T03:12:26;101766.56;;;18.15;100.00
49216;BME280;45943;53.148;8.204;2023-05-12T03:14:54;101773.72;;;18.06;100.00
49216;BME280;45943;53.148;8.204;2023-05-12T03:17:20;101764.56;;;18.08;100.00
49216;BME280;45943;53.148;8.204;2023-05-12T03:19:46;101774.75;;;18.05;100.00
49216;BME280;45943;53.148;8.204;2023-05-12T03:22:12;101780.78;;;17.99;100.00
49216;BME280;45943;53.148;8.204;2023-05-12T03:24:38;101788.38;;;17.86;100.00
49216;BME280;45943;53.148;8.204;2023-05-12T03:27:04;101790.53;;;17.83;100.00
49216;BME280;45943;53.148;8.204;2023-05-12T03:29:30;101789.38;;;17.85;100.00
49216;BME280;45943;53.148;8.204;2023-05-12T03:31:56;101798.38;;;17.86;100.00
49216;BME280;45943;53.148;8.204;2023-05-12T03:34:22;101783.53;;;17.90;100.00
49216;BME280;45943;53.148;8.204;2023-05-12T03:36:48;101790.75;;;17.99;100.00
49216;BME280;45943;53.148;8.204;2023-05-12T03:39:14;101777.75;;;18.02;100.00
49216;BME280;45943;53.148;8.204;2023-05-12T03:41:40;101782.28;;;18.12;100.00
49216;BME280;45943;53.148;8.204;2023-05-12T03:44:06;101777.09;;;18.18;100.00
49216;BME280;45943;53.148;8.204;2023-05-12T03:46:33;101771.22;;;18.23;100.00
49216;BME280;45943;53.148;8.204;2023-05-12T03:48:59;101779.22;;;18.24;100.00
49216;BME280;45943;53.148;8.204;2023-05-12T03:51:25;101777.38;;;18.25;100.00
49216;BME280;45943;53.148;8.204;2023-05-12T03:53:52;101775.34;;;18.27;100.00
49216;BME280;45943;53.148;8.204;2023-05-12T03:56:18;101780.34;;;18.31;100.00
49216;BME280;45943;53.148;8.204;2023-05-12T03:58:44;101781.31;;;18.40;100.00
49216;BME280;45943;53.148;8.204;2023-05-12T04:01:13;101781.84;;;18.44;100.00
49216;BME280;45943;53.148;8.204;2023-05-12T04:03:39;101782.84;;;18.43;100.00
49216;BME280;45943;53.148;8.204;2023-05-12T04:06:06;101787.59;;;18.41;100.00
49216;BME280;45943;53.148;8.204;2023-05-12T04:08:32;101790.84;;;18.44;100.00
49216;BME280;45943;53.148;8.204;2023-05-12T04:10:58;101794.16;;;18.38;100.00
49216;BME280;45943;53.148;8.204;2023-05-12T04:13:26;101792.38;;;18.29;100.00
49216;BME280;45943;53.148;8.204;2023-05-12T04:15:56;101788.34;;;18.33;100.00
49216;BME280;45943;53.148;8.204;2023-05-12T04:18:23;101791.59;;;18.37;100.00
49216;BME280;45943;53.148;8.204;2023-05-12T04:20:50;101796.88;;;18.38;100.00
49216;BME280;45943;53.148;8.204;2023-05-12T04:23:16;101795.44;;;18.44;100.00
49216;BME280;45943;53.148;8.204;2023-05-12T04:25:42;101800.38;;;18.48;100.00
49216;BME280;45943;53.148;8.204;2023-05-12T04:28:09;101791.09;;;18.51;100.00
49216;BME280;45943;53.148;8.204;2023-05-12T04:30:35;101792.97;;;18.50;100.00
49216;BME280;45943;53.148;8.204;2023-05-12T04:33:03;101800.97;;;18.52;100.00
49216;BME280;45943;53.148;8.204;2023-05-12T04:35:29;101812.09;;;18.58;100.00
49216;BME280;45943;53.148;8.204;2023-05-12T04:37:55;101812.38;;;18.55;100.00
49216;BME280;45943;53.148;8.204;2023-05-12T04:40:21;101817.47;;;18.41;100.00
49216;BME280;45943;53.148;8.204;2023-05-12T04:42:47;101828.88;;;18.44;100.00
49216;BME280;45943;53.148;8.204;2023-05-12T04:45:13;101823.00;;;18.49;100.00
49216;BME280;45943;53.148;8.204;2023-05-12T04:47:39;101834.41;;;18.52;100.00
49216;BME280;45943;53.148;8.204;2023-05-12T04:50:05;101838.75;;;18.45;100.00
49216;BME280;45943;53.148;8.204;2023-05-12T04:52:31;101843.47;;;18.43;100.00
49216;BME280;45943;53.148;8.204;2023-05-12T04:54:57;101835.16;;;18.45;100.00
49216;BME280;45943;53.148;8.204;2023-05-12T04:57:23;101841.03;;;18.50;100.00
49216;BME280;45943;53.148;8.204;2023-05-12T04:59:49;101850.25;;;18.57;100.00
49216;BME280;45943;53.148;8.204;2023-05-12T05:02:15;101839.81;;;18.62;100.00
49216;BME280;45943;53.148;8.204;2023-05-12T05:04:41;101847.97;;;18.62;100.00
49216;BME280;45943;53.148;8.204;2023-05-12T05:07:07;101850.84;;;18.60;100.00
49216;BME280;45943;53.148;8.204;2023-05-12T05:09:34;101846.94;;;18.63;100.00
49216;BME280;45943;53.148;8.204;2023-05-12T05:12:00;101844.09;;;18.65;100.00
49216;BME280;45943;53.148;8.204;2023-05-12T05:14:26;101852.09;;;18.66;100.00
49216;BME280;45943;53.148;8.204;2023-05-12T05:16:52;101862.25;;;18.64;100.00
49216;BME280;45943;53.148;8.204;2023-05-12T05:19:18;101867.56;;;18.66;100.00
49216;BME280;45943;53.148;8.204;2023-05-12T05:21:44;101872.56;;;18.70;100.00
49216;BME280;45943;53.148;8.204;2023-05-12T05:24:10;101879.13;;;18.68;100.00
49216;BME280;45943;53.148;8.204;2023-05-12T05:26:36;101875.56;;;18.67;100.00
49216;BME280;45943;53.148;8.204;2023-05-12T05:29:05;101870.97;;;18.68;100.00
49216;BME280;45943;53.148;8.204;2023-05-12T05:31:31;101876.13;;;18.71;100.00
49216;BME280;45943;53.148;8.204;2023-05-12T05:33:58;101884.81;;;18.74;100.00
49216;BME280;45943;53.148;8.204;2023-05-12T05:36:24;101884.66;;;18.76;100.00
49216;BME280;45943;53.148;8.204;2023-05-12T05:38:51;101888.97;;;18.78;100.00
49216;BME280;45943;53.148;8.204;2023-05-12T05:41:17;101889.66;;;18.80;100.00
49216;BME280;45943;53.148;8.204;2023-05-12T05:43:43;101891.06;;;18.84;100.00
49216;BME280;45943;53.148;8.204;2023-05-12T05:46:09;101883.31;;;18.89;100.00
49216;BME280;45943;53.148;8.204;2023-05-12T05:48:35;101880.59;;;18.89;100.00
49216;BME280;45943;53.148;8.204;2023-05-12T05:51:01;101884.56;;;18.95;100.00
49216;BME280;45943;53.148;8.204;2023-05-12T05:53:27;101896.00;;;18.99;100.00
49216;BME280;45943;53.148;8.204;2023-05-12T05:55:53;101890.41;;;19.00;100.00
49216;BME280;45943;53.148;8.204;2023-05-12T05:58:19;101885.34;;;19.05;100.00
49216;BME280;45943;53.148;8.204;2023-05-12T06:00:45;101888.47;;;19.10;100.00
49216;BME280;45943;53.148;8.204;2023-05-12T06:03:11;101902.78;;;19.12;100.00
49216;BME280;45943;53.148;8.204;2023-05-12T06:05:37;101903.19;;;19.17;100.00
49216;BME280;45943;53.148;8.204;2023-05-12T06:08:03;101903.41;;;19.24;100.00
49216;BME280;45943;53.148;8.204;2023-05-12T06:10:29;101901.78;;;19.31;100.00
49216;BME280;45943;53.148;8.204;2023-05-12T06:12:55;101906.38;;;19.31;100.00
49216;BME280;45943;53.148;8.204;2023-05-12T06:15:21;101906.91;;;19.34;100.00
49216;BME280;45943;53.148;8.204;2023-05-12T06:17:47;101905.72;;;19.37;100.00
49216;BME280;45943;53.148;8.204;2023-05-12T06:20:13;101908.00;;;19.41;100.00
49216;BME280;45943;53.148;8.204;2023-05-12T06:22:39;101905.66;;;19.46;100.00
49216;BME280;45943;53.148;8.204;2023-05-12T06:25:07;101915.75;;;19.54;100.00
49216;BME280;45943;53.148;8.204;2023-05-12T06:27:33;101913.78;;;19.56;100.00
49216;BME280;45943;53.148;8.204;2023-05-12T06:29:59;101922.34;;;19.61;100.00
49216;BME280;45943;53.148;8.204;2023-05-12T06:32:25;101927.78;;;19.61;100.00
49216;BME280;45943;53.148;8.204;2023-05-12T06:34:51;101923.88;;;19.64;100.00
49216;BME280;45943;53.148;8.204;2023-05-12T06:37:17;101924.75;;;19.64;100.00
49216;BME280;45943;53.148;8.204;2023-05-12T06:39:43;101916.19;;;19.59;100.00
49216;BME280;45943;53.148;8.204;2023-05-12T06:42:09;101931.53;;;19.60;100.00
49216;BME280;45943;53.148;8.204;2023-05-12T06:44:36;101927.63;;;19.63;100.00
49216;BME280;45943;53.148;8.204;2023-05-12T06:47:02;101936.81;;;19.62;100.00
49216;BME280;45943;53.148;8.204;2023-05-12T06:49:29;101943.25;;;19.61;100.00
49216;BME280;45943;53.148;8.204;2023-05-12T06:51:55;101936.28;;;19.58;100.00
49216;BME280;45943;53.148;8.204;2023-05-12T06:54:21;101933.06;;;19.63;100.00
49216;BME280;45943;53.148;8.204;2023-05-12T06:56:47;101938.59;;;19.71;100.00
49216;BME280;45943;53.148;8.204;2023-05-12T06:59:13;101945.66;;;19.82;100.00
49216;BME280;45943;53.148;8.204;2023-05-12T07:01:39;101951.34;;;19.88;100.00
49216;BME280;45943;53.148;8.204;2023-05-12T07:04:07;101945.41;;;19.93;100.00
49216;BME280;45943;53.148;8.204;2023-05-12T07:06:33;101945.25;;;19.94;100.00
49216;BME280;45943;53.148;8.204;2023-05-12T07:08:59;101956.88;;;19.96;100.00
49216;BME280;45943;53.148;8.204;2023-05-12T07:11:25;101953.56;;;19.93;100.00
49216;BME280;45943;53.148;8.204;2023-05-12T07:13:51;101962.94;;;19.90;100.00
49216;BME280;45943;53.148;8.204;2023-05-12T07:16:18;101956.38;;;19.83;100.00
49216;BME280;45943;53.148;8.204;2023-05-12T07:18:44;101948.69;;;19.79;100.00
49216;BME280;45943;53.148;8.204;2023-05-12T07:21:10;101954.22;;;19.87;100.00
49216;BME280;45943;53.148;8.204;2023-05-12T07:23:37;101957.41;;;19.82;100.00
49216;BME280;45943;53.148;8.204;2023-05-12T07:26:04;101962.31;;;19.96;100.00
49216;BME280;45943;53.148;8.204;2023-05-12T07:28:32;101956.59;;;20.08;100.00
49216;BME280;45943;53.148;8.204;2023-05-12T07:31:03;101960.78;;;20.20;100.00
49216;BME280;45943;53.148;8.204;2023-05-12T07:33:29;101961.88;;;20.35;100.00
49216;BME280;45943;53.148;8.204;2023-05-12T07:35:55;101951.47;;;20.48;100.00
49216;BME280;45943;53.148;8.204;2023-05-12T07:38:22;101963.28;;;20.57;100.00
49216;BME280;45943;53.148;8.204;2023-05-12T07:40:48;101954.59;;;20.61;100.00
49216;BME280;45943;53.148;8.204;2023-05-12T07:43:16;101966.06;;;20.73;100.00
49216;BME280;45943;53.148;8.204;2023-05-12T07:45:42;101961.34;;;20.83;100.00
49216;BME280;45943;53.148;8.204;2023-05-12T07:48:08;101975.97;;;20.74;100.00
49216;BME280;45943;53.148;8.204;2023-05-12T07:50:36;101981.63;;;20.81;100.00
49216;BME280;45943;53.148;8.204;2023-05-12T07:53:02;101972.63;;;20.88;100.00
49216;BME280;45943;53.148;8.204;2023-05-12T07:55:29;101963.63;;;20.96;100.00
49216;BME280;45943;53.148;8.204;2023-05-12T07:57:55;101962.16;;;21.10;100.00
49216;BME280;45943;53.148;8.204;2023-05-12T08:00:21;101953.16;;;21.17;100.00
49216;BME280;45943;53.148;8.204;2023-05-12T08:02:47;101944.53;;;21.38;100.00
49216;BME280;45943;53.148;8.204;2023-05-12T08:05:13;101957.50;;;21.44;100.00
49216;BME280;45943;53.148;8.204;2023-05-12T08:07:39;101955.81;;;21.60;100.00
49216;BME280;45943;53.148;8.204;2023-05-12T08:10:08;101960.78;;;21.72;100.00
49216;BME280;45943;53.148;8.204;2023-05-12T08:12:36;101971.72;;;21.81;100.00
49216;BME280;45943;53.148;8.204;2023-05-12T08:15:02;101960.81;;;21.97;100.00
49216;BME280;45943;53.148;8.204;2023-05-12T08:17:28;101965.25;;;21.98;100.00
49216;BME280;45943;53.148;8.204;2023-05-12T08:19:54;101960.13;;;21.87;100.00
49216;BME280;45943;53.148;8.204;2023-05-12T08:22:20;101958.91;;;21.97;100.00
49216;BME280;45943;53.148;8.204;2023-05-12T08:24:46;101966.28;;;22.21;100.00
49216;BME280;45943;53.148;8.204;2023-05-12T08:27:12;101958.56;;;22.41;100.00
49216;BME280;45943;53.148;8.204;2023-05-12T08:29:38;101966.06;;;22.47;100.00
49216;BME280;45943;53.148;8.204;2023-05-12T08:32:04;101970.31;;;22.50;100.00
49216;BME280;45943;53.148;8.204;2023-05-12T08:34:30;101965.38;;;22.53;100.00
49216;BME280;45943;53.148;8.204;2023-05-12T08:36:57;101973.56;;;22.61;100.00
49216;BME280;45943;53.148;8.204;2023-05-12T08:39:23;101967.03;;;22.71;100.00
49216;BME280;45943;53.148;8.204;2023-05-12T08:44:27;101968.88;;;22.95;100.00
49216;BME280;45943;53.148;8.204;2023-05-12T08:46:53;101965.38;;;23.09;100.00
49216;BME280;45943;53.148;8.204;2023-05-12T08:49:21;101973.50;;;23.25;100.00
49216;BME280;45943;53.148;8.204;2023-05-12T08:51:52;101977.97;;;23.49;100.00
49216;BME280;45943;53.148;8.204;2023-05-12T08:54:18;101973.69;;;23.55;100.00
49216;BME280;45943;53.148;8.204;2023-05-12T08:56:46;101968.19;;;23.63;100.00
49216;BME280;45943;53.148;8.204;2023-05-12T08:59:14;101976.47;;;23.46;90.87
49216;BME280;45943;53.148;8.204;2023-05-12T09:01:40;101977.81;;;23.51;98.48
49216;BME280;45943;53.148;8.204;2023-05-12T09:04:07;101985.66;;;23.54;100.00
49216;BME280;45943;53.148;8.204;2023-05-12T09:06:34;101987.97;;;23.42;91.33
49216;BME280;45943;53.148;8.204;2023-05-12T09:09:00;101985.28;;;23.34;87.87
49216;BME280;45943;53.148;8.204;2023-05-12T09:11:27;101989.44;;;23.22;93.21
49216;BME280;45943;53.148;8.204;2023-05-12T09:13:59;101989.53;;;22.97;94.85
49216;BME280;45943;53.148;8.204;2023-05-12T09:16:29;101990.31;;;23.22;99.74
49216;BME280;45943;53.148;8.204;2023-05-12T09:18:58;101995.22;;;23.27;99.71
49216;BME280;45943;53.148;8.204;2023-05-12T09:21:25;101979.38;;;23.45;100.00
49216;BME280;45943;53.148;8.204;2023-05-12T09:26:23;101990.28;;;23.84;84.35
49216;BME280;45943;53.148;8.204;2023-05-12T09:28:52;101988.47;;;23.99;81.87
49216;BME280;45943;53.148;8.204;2023-05-12T09:31:21;101991.03;;;24.01;76.56
49216;BME280;45943;53.148;8.204;2023-05-12T09:33:49;101993.34;;;24.27;76.98
49216;BME280;45943;53.148;8.204;2023-05-12T09:36:19;101991.72;;;24.41;79.46
49216;BME280;45943;53.148;8.204;2023-05-12T09:38:57;101992.66;;;24.33;77.74
49216;BME280;45943;53.148;8.204;2023-05-12T09:41:29;101984.25;;;24.49;81.74
49216;BME280;45943;53.148;8.204;2023-05-12T09:43:58;101987.47;;;24.68;78.07
49216;BME280;45943;53.148;8.204;2023-05-12T09:46:24;101993.66;;;24.70;76.24
49216;BME280;45943;53.148;8.204;2023-05-12T09:48:50;101990.63;;;24.79;69.21
49216;BME280;45943;53.148;8.204;2023-05-12T09:51:20;101989.47;;;24.88;66.18
49216;BME280;45943;53.148;8.204;2023-05-12T09:53:46;101989.09;;;25.06;67.42
49216;BME280;45943;53.148;8.204;2023-05-12T09:56:13;101985.78;;;25.11;66.06
49216;BME280;45943;53.148;8.204;2023-05-12T09:58:42;101985.41;;;25.14;63.91
49216;BME280;45943;53.148;8.204;2023-05-12T10:01:11;101987.84;;;25.38;67.00
49216;BME280;45943;53.148;8.204;2023-05-12T10:03:40;101981.19;;;25.48;67.05
49216;BME280;45943;53.148;8.204;2023-05-12T10:06:12;101984.16;;;25.67;67.49
49216;BME280;45943;53.148;8.204;2023-05-12T10:08:45;101986.41;;;26.00;66.26
49216;BME280;45943;53.148;8.204;2023-05-12T10:11:15;101988.69;;;26.18;64.78
49216;BME280;45943;53.148;8.204;2023-05-12T10:13:42;101988.91;;;26.23;58.82
49216;BME280;45943;53.148;8.204;2023-05-12T10:16:08;101989.03;;;26.36;59.71
49216;BME280;45943;53.148;8.204;2023-05-12T10:18:34;101992.69;;;26.43;58.93
49216;BME280;45943;53.148;8.204;2023-05-12T10:21:01;101986.13;;;26.38;57.77
49216;BME280;45943;53.148;8.204;2023-05-12T10:23:27;101991.06;;;26.49;58.88
49216;BME280;45943;53.148;8.204;2023-05-12T10:25:54;101987.34;;;26.63;60.55
49216;BME280;45943;53.148;8.204;2023-05-12T10:28:27;101991.03;;;27.05;57.54
49216;BME280;45943;53.148;8.204;2023-05-12T10:30:53;101993.50;;;27.00;51.40
49216;BME280;45943;53.148;8.204;2023-05-12T10:33:22;101986.63;;;27.17;51.47
49216;BME280;45943;53.148;8.204;2023-05-12T10:35:50;101979.69;;;27.34;51.67
49216;BME280;45943;53.148;8.204;2023-05-12T10:38:16;101981.44;;;27.49;53.74
49216;BME280;45943;53.148;8.204;2023-05-12T10:41:00;101986.59;;;27.71;53.65
49216;BME280;45943;53.148;8.204;2023-05-12T10:43:28;101983.84;;;27.78;53.34
49216;BME280;45943;53.148;8.204;2023-05-12T10:46:06;101982.59;;;27.81;54.47
49216;BME280;45943;53.148;8.204;2023-05-12T10:48:59;101980.50;;;28.03;54.52
49216;BME280;45943;53.148;8.204;2023-05-12T10:51:29;101987.69;;;27.90;48.38
49216;BME280;45943;53.148;8.204;2023-05-12T10:53:58;101986.22;;;28.08;46.14
49216;BME280;45943;53.148;8.204;2023-05-12T10:56:26;101985.38;;;28.07;44.85
49216;BME280;45943;53.148;8.204;2023-05-12T11:01:42;101985.81;;;28.17;45.24
49216;BME280;45943;53.148;8.204;2023-05-12T11:07:24;101980.25;;;28.70;41.56
49216;BME280;45943;53.148;8.204;2023-05-12T11:09:54;101989.41;;;28.51;41.07
49216;BME280;45943;53.148;8.204;2023-05-12T11:12:28;101981.28;;;28.82;42.00
49216;BME280;45943;53.148;8.204;2023-05-12T11:14:58;101980.81;;;29.12;41.47
49216;BME280;45943;53.148;8.204;2023-05-12T11:17:25;101985.44;;;29.18;39.48
49216;BME280;45943;53.148;8.204;2023-05-12T11:19:51;101979.16;;;29.42;39.80
49216;BME280;45943;53.148;8.204;2023-05-12T11:22:18;101982.41;;;29.33;39.28
49216;BME280;45943;53.148;8.204;2023-05-12T11:24:46;101993.09;;;29.23;39.36
49216;BME280;45943;53.148;8.204;2023-05-12T11:27:14;101981.19;;;29.22;38.53
49216;BME280;45943;53.148;8.204;2023-05-12T11:29:41;101983.03;;;28.64;38.18
49216;BME280;45943;53.148;8.204;2023-05-12T11:32:08;101989.56;;;28.89;38.14
49216;BME280;45943;53.148;8.204;2023-05-12T11:34:37;101977.53;;;28.37;38.52
49216;BME280;45943;53.148;8.204;2023-05-12T11:37:04;101979.97;;;29.11;40.04
49216;BME280;45943;53.148;8.204;2023-05-12T11:39:31;101987.41;;;29.56;38.39
49216;BME280;45943;53.148;8.204;2023-05-12T11:42:01;101984.75;;;29.74;37.06
49216;BME280;45943;53.148;8.204;2023-05-12T11:44:29;101975.72;;;29.54;36.62
49216;BME280;45943;53.148;8.204;2023-05-12T11:49:26;101981.16;;;29.67;35.98
49216;BME280;45943;53.148;8.204;2023-05-12T11:51:54;101991.09;;;29.36;35.39
49216;BME280;45943;53.148;8.204;2023-05-12T11:54:21;101977.84;;;29.90;37.16
49216;BME280;45943;53.148;8.204;2023-05-12T11:56:51;101978.31;;;30.12;36.10
49216;BME280;45943;53.148;8.204;2023-05-12T11:59:25;101980.47;;;30.10;36.05
49216;BME280;45943;53.148;8.204;2023-05-12T12:01:52;101989.69;;;30.29;36.80
49216;BME280;45943;53.148;8.204;2023-05-12T12:04:29;101989.09;;;29.88;35.68
49216;BME280;45943;53.148;8.204;2023-05-12T12:06:59;101990.91;;;29.76;35.80
49216;BME280;45943;53.148;8.204;2023-05-12T12:09:29;101992.56;;;29.84;36.45
49216;BME280;45943;53.148;8.204;2023-05-12T12:11:56;101995.47;;;29.89;35.49
49216;BME280;45943;53.148;8.204;2023-05-12T12:14:22;101996.41;;;29.83;36.27
49216;BME280;45943;53.148;8.204;2023-05-12T12:16:48;101985.13;;;29.78;35.95
49216;BME280;45943;53.148;8.204;2023-05-12T12:19:14;101990.19;;;29.87;36.78
49216;BME280;45943;53.148;8.204;2023-05-12T12:21:40;101985.78;;;30.05;35.19
49216;BME280;45943;53.148;8.204;2023-05-12T12:24:09;101990.56;;;30.47;35.39
49216;BME280;45943;53.148;8.204;2023-05-12T12:26:35;101992.56;;;30.40;34.50
49216;BME280;45943;53.148;8.204;2023-05-12T12:29:01;101996.28;;;29.96;33.59
49216;BME280;45943;53.148;8.204;2023-05-12T12:31:27;102001.81;;;29.64;34.48
49216;BME280;45943;53.148;8.204;2023-05-12T12:33:53;102000.91;;;29.32;33.20
49216;BME280;45943;53.148;8.204;2023-05-12T12:36:19;101993.44;;;29.78;34.14
49216;BME280;45943;53.148;8.204;2023-05-12T12:38:45;101991.19;;;30.24;33.06
49216;BME280;45943;53.148;8.204;2023-05-12T12:41:11;101990.47;;;30.04;31.58
49216;BME280;45943;53.148;8.204;2023-05-12T12:43:37;101987.56;;;29.99;32.62
49216;BME280;45943;53.148;8.204;2023-05-12T12:46:03;101982.94;;;29.86;33.13
49216;BME280;45943;53.148;8.204;2023-05-12T12:48:29;101987.31;;;29.69;33.21
49216;BME280;45943;53.148;8.204;2023-05-12T12:50:56;101995.75;;;29.42;33.87
49216;BME280;45943;53.148;8.204;2023-05-12T12:53:22;101992.53;;;29.01;34.31
49216;BME280;45943;53.148;8.204;2023-05-12T12:55:48;101998.28;;;28.79;34.63